Time;durP1;ratioP1;P1;durP2;ratioP2;P2;SDS_P1;SDS_P2;PMS_P1;PMS_P2;Temp;Humidity;BMP_temperature;BMP_pressure;BME280_temperature;BME280_humidity;BME280_pressure;Samples;Min_cycle;Max_cycle;Signal;HPM_P1;HPM_P2
2023/01/25 00:00:08;;;;;;;;;;;;;;;24.60;35.03;96201.34;4976964;28;1338;-72
2023/01/25 00:02:33;;;;;;;;;;;;;;;24.59;35.38;96196.16;4996014;28;1416;-72
2023/01/25 00:04:59;;;;;;;;;;;;;;;24.58;35.29;96195.31;4994499;28;1957;-73
2023/01/25 00:07:24;;;;;;;;;;;;;;;24.57;35.34;96196.38;4996037;28;1472;-73
2023/01/25 00:09:49;;;;;;;;;;;;;;;24.57;35.43;96196.38;4989813;28;1528;-72
2023/01/25 00:12:14;;;;;;;;;;;;;;;24.57;35.34;96200.91;4991626;28;1156;-72
2023/01/25 00:14:40;;;;;;;;;;;;;;;24.58;35.47;96205.25;4994333;28;1595;-72
2023/01/25 00:17:05;;;;;;;;;;;;;;;24.60;35.74;96203.19;4985316;28;1440;-73
2023/01/25 00:19:30;;;;;;;;;;;;;;;24.64;35.69;96199.88;4989654;28;1458;-71
2023/01/25 00:21:55;;;;;;;;;;;;;;;24.64;35.75;96194.50;4977818;28;1490;-71
2023/01/25 00:24:24;;;;;;;;;;;;;;;24.63;35.69;96197.41;4995634;28;1589;-71
2023/01/25 00:26:49;;;;;;;;;;;;;;;24.65;35.74;96204.25;4977717;28;1963;-71
2023/01/25 00:29:15;;;;;;;;;;;;;;;24.62;35.94;96196.59;4976166;28;1538;-71
2023/01/25 00:31:57;;;;;;;;;;;;;;;24.62;35.89;96198.47;5012928;28;1588;-71
2023/01/25 00:34:25;;;;;;;;;;;;;;;24.63;35.74;96200.09;4986752;28;1474;-71
2023/01/25 00:36:53;;;;;;;;;;;;;;;24.63;36.01;96192.06;4979571;28;1552;-71
2023/01/25 00:39:19;;;;;;;;;;;;;;;24.61;35.96;96194.09;4993861;28;1601;-71
2023/01/25 00:41:44;;;;;;;;;;;;;;;24.62;35.95;96195.78;4994967;28;1567;-71
2023/01/25 00:44:09;;;;;;;;;;;;;;;24.62;36.11;96201.13;4983555;28;1494;-71
2023/01/25 00:46:34;;;;;;;;;;;;;;;24.62;36.00;96207.34;4995007;28;1910;-71
2023/01/25 00:49:00;;;;;;;;;;;;;;;24.63;36.23;96194.72;4993201;28;1504;-71
2023/01/25 00:51:25;;;;;;;;;;;;;;;24.64;36.18;96199.88;4991176;28;1405;-71
2023/01/25 00:53:50;;;;;;;;;;;;;;;24.64;36.21;96199.06;4975755;28;936;-71
2023/01/25 00:56:16;;;;;;;;;;;;;;;24.65;36.15;96203.41;5014538;28;1547;-71
2023/01/25 00:58:41;;;;;;;;;;;;;;;24.64;36.31;96194.50;4995147;28;817;-71
2023/01/25 01:01:07;;;;;;;;;;;;;;;24.66;36.46;96203.19;5009287;28;1478;-72
2023/01/25 01:03:32;;;;;;;;;;;;;;;24.67;36.19;96204.03;4993667;28;1413;-72
2023/01/25 01:06:04;;;;;;;;;;;;;;;24.66;36.27;96207.75;4993896;28;1879;-72
2023/01/25 01:08:32;;;;;;;;;;;;;;;24.63;36.58;96197.41;4987535;28;1529;-72
2023/01/25 01:10:58;;;;;;;;;;;;;;;24.61;36.32;96202.97;4994653;28;1541;-71
2023/01/25 01:13:24;;;;;;;;;;;;;;;24.63;36.17;96197.41;4995011;28;892;-71
2023/01/25 01:15:49;;;;;;;;;;;;;;;24.63;36.58;96197.41;4989943;28;1624;-71
2023/01/25 01:18:14;;;;;;;;;;;;;;;24.63;36.52;96202.78;4985332;28;1508;-71
2023/01/25 01:20:39;;;;;;;;;;;;;;;24.64;36.44;96199.06;4992057;28;1477;-71
2023/01/25 01:23:05;;;;;;;;;;;;;;;24.64;36.61;96199.06;4993725;28;1642;-71
2023/01/25 01:25:31;;;;;;;;;;;;;;;24.65;36.48;96200.72;4984467;28;1907;-71
2023/01/25 01:27:56;;;;;;;;;;;;;;;24.65;36.61;96201.56;4979809;28;1539;-71
2023/01/25 01:30:22;;;;;;;;;;;;;;;24.66;36.43;96197.00;4981694;28;1553;-71
2023/01/25 01:32:49;;;;;;;;;;;;;;;24.63;36.35;96190.19;4983410;28;1551;-71
2023/01/25 01:35:15;;;;;;;;;;;;;;;24.63;36.44;96184.00;4981421;28;1517;-71
2023/01/25 01:37:41;;;;;;;;;;;;;;;24.63;36.56;96187.50;4993443;28;1588;-71
2023/01/25 01:40:07;;;;;;;;;;;;;;;24.60;36.58;96181.72;4988705;28;1538;-72
2023/01/25 01:42:32;;;;;;;;;;;;;;;24.62;36.71;96183.19;4989055;28;1559;-71
2023/01/25 01:44:58;;;;;;;;;;;;;;;24.63;36.66;96182.13;4974870;28;1530;-71
2023/01/25 01:47:26;;;;;;;;;;;;;;;24.62;36.66;96174.31;5016882;28;1911;-71
2023/01/25 01:49:57;;;;;;;;;;;;;;;24.63;36.69;96176.78;5007816;28;1544;-71
2023/01/25 01:52:27;;;;;;;;;;;;;;;24.62;36.94;96179.69;4981745;28;1385;-71
2023/01/25 01:54:56;;;;;;;;;;;;;;;24.65;36.87;96177.41;5006069;28;1710;-71
2023/01/25 01:57:25;;;;;;;;;;;;;;;24.66;36.68;96176.38;4974954;28;801;-70
2023/01/25 02:00:00;;;;;;;;;;;;;;;24.66;36.81;96184.41;5005101;28;1542;-70
2023/01/25 02:02:26;;;;;;;;;;;;;;;24.70;37.04;96168.72;4975938;28;1429;-71
2023/01/25 02:04:53;;;;;;;;;;;;;;;24.71;36.81;96173.09;4974222;28;1584;-71
2023/01/25 02:07:24;;;;;;;;;;;;;;;24.71;37.19;96170.41;4990314;28;1906;-70
2023/01/25 02:09:50;;;;;;;;;;;;;;;24.73;37.02;96175.56;4993826;28;1373;-71
2023/01/25 02:12:16;;;;;;;;;;;;;;;24.70;37.22;96176.78;4982351;28;1588;-70
2023/01/25 02:14:45;;;;;;;;;;;;;;;24.69;37.16;96172.44;4989449;28;1545;-70
2023/01/25 02:17:11;;;;;;;;;;;;;;;24.70;37.27;96174.09;4980627;28;1471;-70
2023/01/25 02:19:39;;;;;;;;;;;;;;;24.71;37.30;96161.53;4987777;28;1617;-70
2023/01/25 02:22:09;;;;;;;;;;;;;;;24.71;37.09;96173.09;4974331;28;1481;-70
2023/01/25 02:24:37;;;;;;;;;;;;;;;24.72;37.25;96169.34;4990109;28;1529;-71
2023/01/25 02:27:03;;;;;;;;;;;;;;;24.72;37.14;96179.28;4998633;28;1902;-70
2023/01/25 02:29:28;;;;;;;;;;;;;;;24.72;37.01;96173.91;4993781;28;1580;-69
2023/01/25 02:32:04;;;;;;;;;;;;;;;24.69;37.32;96175.97;4992865;28;1513;-71
2023/01/25 02:34:29;;;;;;;;;;;;;;;24.69;37.17;96172.44;4992363;28;1522;-71
2023/01/25 02:36:54;;;;;;;;;;;;;;;24.68;37.38;96173.50;4992798;28;1415;-72
2023/01/25 02:39:22;;;;;;;;;;;;;;;24.68;37.24;96168.94;4985290;28;1470;-71
2023/01/25 02:41:48;;;;;;;;;;;;;;;24.67;37.34;96167.28;4977414;28;1581;-71
2023/01/25 02:44:22;;;;;;;;;;;;;;;24.68;37.35;96170.81;4994578;28;1655;-71
2023/01/25 02:46:47;;;;;;;;;;;;;;;24.67;37.38;96159.22;4992168;28;1903;-72
2023/01/25 02:49:14;;;;;;;;;;;;;;;24.69;37.25;96164.41;4984180;28;1410;-71
2023/01/25 02:51:41;;;;;;;;;;;;;;;24.72;37.22;96164.00;4990758;28;1543;-71
2023/01/25 02:54:07;;;;;;;;;;;;;;;24.71;37.24;96161.53;4991793;28;1588;-70
2023/01/25 02:56:32;;;;;;;;;;;;;;;24.71;37.34;96162.34;4977540;28;1480;-70
2023/01/25 02:58:58;;;;;;;;;;;;;;;24.72;37.39;96169.34;4974741;28;1386;-72
2023/01/25 03:01:23;;;;;;;;;;;;;;;24.68;37.19;96168.94;4979277;28;1488;-71
2023/01/25 03:03:49;;;;;;;;;;;;;;;24.68;37.01;96168.94;4977105;28;1413;-72
2023/01/25 03:06:14;;;;;;;;;;;;;;;24.67;37.35;96169.13;4980154;28;1962;-70
2023/01/25 03:08:39;;;;;;;;;;;;;;;24.68;37.30;96166.25;4991990;28;1444;-71
2023/01/25 03:11:06;;;;;;;;;;;;;;;24.68;37.29;96168.94;4990478;28;1530;-73
2023/01/25 03:13:32;;;;;;;;;;;;;;;24.69;37.43;96169.78;4987566;28;1373;-71
2023/01/25 03:15:58;;;;;;;;;;;;;;;24.71;37.34;96172.25;5009229;28;1590;-70
2023/01/25 03:18:23;;;;;;;;;;;;;;;24.73;37.43;96176.38;4988889;28;1522;-71
2023/01/25 03:20:49;;;;;;;;;;;;;;;24.73;37.20;96167.50;4996430;28;1580;-71
2023/01/25 03:23:14;;;;;;;;;;;;;;;24.72;37.14;96164.00;4991589;28;1412;-72
2023/01/25 03:25:39;;;;;;;;;;;;;;;24.73;37.37;96162.94;4977605;28;1957;-72
2023/01/25 03:28:04;;;;;;;;;;;;;;;24.73;37.39;96165.63;4977325;28;865;-72
2023/01/25 03:30:30;;;;;;;;;;;;;;;24.72;37.59;96163.16;4989592;28;1570;-71
2023/01/25 03:32:55;;;;;;;;;;;;;;;24.72;37.57;96161.31;5008528;28;1579;-71
2023/01/25 03:35:20;;;;;;;;;;;;;;;24.72;37.45;96155.13;4975579;28;1610;-71
2023/01/25 03:37:45;;;;;;;;;;;;;;;24.72;37.37;96164.00;5009083;28;1301;-71
2023/01/25 03:40:11;;;;;;;;;;;;;;;24.73;37.30;96164.81;5019088;28;1518;-73
2023/01/25 03:42:36;;;;;;;;;;;;;;;24.75;37.18;96168.13;4996233;28;1466;-72
2023/01/25 03:45:01;;;;;;;;;;;;;;;24.74;37.26;96170.00;4985540;28;1491;-72
2023/01/25 03:47:27;;;;;;;;;;;;;;;24.73;37.34;96162.94;4978308;28;1906;-72
2023/01/25 03:49:52;;;;;;;;;;;;;;;24.73;37.24;96154.91;4991098;28;1549;-72
2023/01/25 03:52:17;;;;;;;;;;;;;;;24.73;37.28;96160.25;4977941;28;1639;-72
2023/01/25 03:54:43;;;;;;;;;;;;;;;24.72;37.59;96158.63;4987961;28;1475;-73
2023/01/25 03:57:08;;;;;;;;;;;;;;;24.75;37.20;96158.22;4989697;28;1501;-71
2023/01/25 03:59:33;;;;;;;;;;;;;;;24.74;37.21;96159.25;4992795;28;1531;-72
2023/01/25 04:01:58;;;;;;;;;;;;;;;24.71;37.39;96156.97;4995919;28;1596;-72
2023/01/25 04:04:24;;;;;;;;;;;;;;;24.71;37.33;96148.94;4992283;28;1594;-72
2023/01/25 04:06:49;;;;;;;;;;;;;;;24.69;37.31;96154.50;4989705;28;1906;-72
2023/01/25 04:09:14;;;;;;;;;;;;;;;24.67;36.99;96155.72;4976035;28;1410;-72
2023/01/25 04:11:40;;;;;;;;;;;;;;;24.67;37.09;96155.72;4995939;28;1409;-73
2023/01/25 04:14:05;;;;;;;;;;;;;;;24.51;36.13;96156.13;4991506;28;1534;-72
2023/01/25 04:16:30;;;;;;;;;;;;;;;24.57;36.67;96158.81;4992452;28;1619;-71
2023/01/25 04:18:56;;;;;;;;;;;;;;;24.53;36.66;96148.66;4977092;28;1489;-70
2023/01/25 04:21:21;;;;;;;;;;;;;;;24.56;36.56;96143.75;4986532;28;1318;-73
2023/01/25 04:23:46;;;;;;;;;;;;;;;24.57;36.44;96144.56;4984303;28;1627;-73
2023/01/25 04:26:14;;;;;;;;;;;;;;;24.50;36.26;96149.91;4979192;28;1902;-73
2023/01/25 04:28:40;;;;;;;;;;;;;;;24.45;36.42;96158.56;4994625;28;1333;-73
2023/01/25 04:31:05;;;;;;;;;;;;;;;24.46;36.57;96154.03;4989592;28;1563;-73
2023/01/25 04:33:31;;;;;;;;;;;;;;;24.44;36.41;96159.59;4988517;28;1494;-74
2023/01/25 04:35:57;;;;;;;;;;;;;;;24.40;36.50;96163.69;4994733;28;1306;-74
2023/01/25 04:38:22;;;;;;;;;;;;;;;24.36;36.19;96164.28;4995718;28;1375;-73
2023/01/25 04:40:47;;;;;;;;;;;;;;;24.37;36.34;96160.59;5022902;28;1479;-74
2023/01/25 04:43:14;;;;;;;;;;;;;;;24.38;36.20;96162.22;4985581;28;1423;-73
2023/01/25 04:45:39;;;;;;;;;;;;;;;24.34;36.35;96167.16;4995675;28;1989;-73
2023/01/25 04:48:09;;;;;;;;;;;;;;;24.32;35.94;96169.22;4994393;28;1192;-72
2023/01/25 04:50:35;;;;;;;;;;;;;;;24.34;36.09;96158.31;4991736;28;1822;-73
2023/01/25 04:53:00;;;;;;;;;;;;;;;24.20;31.83;96166.28;5000247;28;1666;-73
2023/01/25 04:55:26;;;;;;;;;;;;;;;21.67;26.66;96157.75;4988537;28;1512;-72
2023/01/25 04:57:51;;;;;;;;;;;;;;;19.87;27.70;96160.94;4989458;28;1467;-72
2023/01/25 05:00:17;;;;;;;;;;;;;;;19.55;29.30;96168.81;4983595;28;1433;-72
2023/01/25 05:02:42;;;;;;;;;;;;;;;20.23;29.39;96163.91;4994910;28;1516;-73
2023/01/25 05:05:08;;;;;;;;;;;;;;;19.00;26.90;96161.59;4985723;28;1736;-72
2023/01/25 05:07:34;;;;;;;;;;;;;;;18.16;27.51;96174.09;4977902;28;1898;-72
2023/01/25 05:10:00;;;;;;;;;;;;;;;18.53;30.40;96162.22;4990960;28;1538;-73
2023/01/25 05:12:25;;;;;;;;;;;;;;;19.97;30.69;96151.69;5007954;28;1758;-73
2023/01/25 05:14:50;;;;;;;;;;;;;;;20.17;29.09;96165.44;4992153;28;1665;-72
2023/01/25 05:17:16;;;;;;;;;;;;;;;20.15;29.99;96156.78;4983999;28;1564;-74
2023/01/25 05:19:41;;;;;;;;;;;;;;;20.75;30.53;96147.28;4994602;28;1254;-73
2023/01/25 05:22:10;;;;;;;;;;;;;;;21.33;30.49;96145.72;4993426;28;1463;-71
2023/01/25 05:24:35;;;;;;;;;;;;;;;21.72;30.21;96147.34;4995122;28;880;-72
2023/01/25 05:27:04;;;;;;;;;;;;;;;22.01;30.23;96148.34;5009781;28;1906;-72
2023/01/25 05:29:31;;;;;;;;;;;;;;;22.21;30.51;96145.94;4984997;28;1215;-72
2023/01/25 05:31:57;;;;;;;;;;;;;;;22.38;30.44;96159.91;5006136;28;1273;-72
2023/01/25 05:34:23;;;;;;;;;;;;;;;22.50;30.53;96155.72;4975190;28;856;-72
2023/01/25 05:36:48;;;;;;;;;;;;;;;22.59;30.59;96156.41;4973719;28;1248;-72
2023/01/25 05:39:13;;;;;;;;;;;;;;;22.68;30.50;96156.13;4970246;28;1132;-71
2023/01/25 05:41:39;;;;;;;;;;;;;;;22.74;30.52;96157.22;4970295;28;1075;-71
2023/01/25 05:44:04;;;;;;;;;;;;;;;22.81;30.47;96159.94;4975014;28;913;-71
2023/01/25 05:46:29;;;;;;;;;;;;;;;22.85;30.64;96158.53;4975105;28;1910;-71
2023/01/25 05:48:55;;;;;;;;;;;;;;;22.89;30.84;96165.16;4973614;28;1445;-71
2023/01/25 05:51:20;;;;;;;;;;;;;;;22.94;30.35;96161.88;4996537;28;1183;-71
2023/01/25 05:53:45;;;;;;;;;;;;;;;22.96;30.60;96158.03;4974873;28;872;-71
2023/01/25 05:56:11;;;;;;;;;;;;;;;23.00;30.82;96164.69;4975071;28;818;-71
2023/01/25 05:58:37;;;;;;;;;;;;;;;23.04;30.77;96159.75;5006145;28;1214;-71
2023/01/25 06:01:02;;;;;;;;;;;;;;;23.07;30.61;96162.88;4974607;28;878;-71
2023/01/25 06:03:28;;;;;;;;;;;;;;;23.10;30.64;96159.81;4996419;28;1218;-71
2023/01/25 06:05:54;;;;;;;;;;;;;;;23.13;30.77;96156.75;4973142;28;1898;-71
2023/01/25 06:08:19;;;;;;;;;;;;;;;23.16;30.78;96160.88;4974486;28;794;-71
2023/01/25 06:10:45;;;;;;;;;;;;;;;23.19;30.55;96159.66;4973193;28;1343;-72
2023/01/25 06:13:10;;;;;;;;;;;;;;;23.22;30.79;96164.63;4970118;28;1092;-71
2023/01/25 06:15:35;;;;;;;;;;;;;;;23.25;30.82;96164.25;4969483;28;1242;-71
2023/01/25 06:18:00;;;;;;;;;;;;;;;23.26;30.79;96173.94;4974311;28;818;-72
2023/01/25 06:20:26;;;;;;;;;;;;;;;23.29;30.83;96173.56;4973113;28;1192;-72
2023/01/25 06:22:51;;;;;;;;;;;;;;;23.30;30.84;96175.22;4974391;28;874;-72
2023/01/25 06:25:16;;;;;;;;;;;;;;;23.32;30.72;96174.00;4995777;28;1899;-72
2023/01/25 06:27:42;;;;;;;;;;;;;;;23.34;30.83;96168.47;4974366;28;856;-72
2023/01/25 06:30:07;;;;;;;;;;;;;;;23.34;30.71;96176.50;4974043;28;1215;-72
2023/01/25 06:32:33;;;;;;;;;;;;;;;23.37;30.85;96177.94;4974166;28;1149;-72
2023/01/25 06:34:58;;;;;;;;;;;;;;;23.38;30.85;96177.75;4974194;28;783;-72
2023/01/25 06:37:23;;;;;;;;;;;;;;;23.40;30.91;96174.88;4964770;28;1131;-72
2023/01/25 06:39:49;;;;;;;;;;;;;;;23.41;30.82;96177.34;4974492;28;876;-72
2023/01/25 06:42:14;;;;;;;;;;;;;;;23.43;30.98;96174.50;4974193;28;868;-72
2023/01/25 06:44:39;;;;;;;;;;;;;;;23.43;31.12;96178.00;4974043;28;805;-71
2023/01/25 06:47:07;;;;;;;;;;;;;;;23.44;31.07;96176.13;4973095;28;1906;-70
2023/01/25 06:49:32;;;;;;;;;;;;;;;23.46;30.96;96171.41;4972962;28;1227;-71
2023/01/25 06:51:59;;;;;;;;;;;;;;;23.46;30.79;96172.25;4977962;28;855;-72
2023/01/25 06:54:25;;;;;;;;;;;;;;;23.47;30.81;96171.22;4978051;28;881;-72
2023/01/25 06:56:50;;;;;;;;;;;;;;;23.48;31.02;96167.53;4978262;28;893;-73
2023/01/25 06:59:15;;;;;;;;;;;;;;;23.49;31.04;96174.53;4999913;28;1344;-71
2023/01/25 07:01:40;;;;;;;;;;;;;;;23.49;30.84;96174.53;5009211;28;1391;-71
2023/01/25 07:04:08;;;;;;;;;;;;;;;23.51;31.04;96171.66;4977982;28;896;-71
2023/01/25 07:06:33;;;;;;;;;;;;;;;23.52;31.12;96170.63;4977576;28;1969;-71
2023/01/25 07:09:06;;;;;;;;;;;;;;;23.52;30.92;96171.47;5009169;28;1477;-72
2023/01/25 07:11:31;;;;;;;;;;;;;;;23.52;31.17;96168.78;4966975;28;1421;-72
2023/01/25 07:13:56;;;;;;;;;;;;;;;23.54;31.14;96174.78;4977560;28;789;-71
2023/01/25 07:16:21;;;;;;;;;;;;;;;23.54;31.00;96164.06;4977584;28;965;-72
2023/01/25 07:18:47;;;;;;;;;;;;;;;23.56;31.02;96169.19;4977539;28;892;-72
2023/01/25 07:21:13;;;;;;;;;;;;;;;23.56;31.07;96172.75;4971876;28;1258;-73
2023/01/25 07:23:40;;;;;;;;;;;;;;;23.56;31.06;96172.75;5004298;28;1179;-72
2023/01/25 07:26:13;;;;;;;;;;;;;;;23.58;31.16;96180.56;4977370;28;1904;-72
2023/01/25 07:28:38;;;;;;;;;;;;;;;23.57;31.12;96176.25;4977470;28;905;-72
2023/01/25 07:31:04;;;;;;;;;;;;;;;23.58;30.99;96183.25;4975904;28;1441;-71
2023/01/25 07:33:30;;;;;;;;;;;;;;;23.57;30.95;96177.06;4999126;28;1523;-71
2023/01/25 07:35:58;;;;;;;;;;;;;;;23.59;31.20;96176.84;4977382;28;802;-72
2023/01/25 07:38:24;;;;;;;;;;;;;;;23.60;31.01;96175.03;4977255;28;849;-71
2023/01/25 07:40:52;;;;;;;;;;;;;;;23.60;31.19;96180.38;5008714;28;1333;-72
2023/01/25 07:43:18;;;;;;;;;;;;;;;23.60;30.93;96173.16;4977397;28;920;-73
2023/01/25 07:45:47;;;;;;;;;;;;;;;23.61;31.04;96182.03;4967879;28;1918;-72
2023/01/25 07:48:12;;;;;;;;;;;;;;;23.61;31.18;96185.53;4977074;28;975;-72
2023/01/25 07:50:38;;;;;;;;;;;;;;;23.61;31.32;96184.69;4977058;28;935;-72
2023/01/25 07:53:04;;;;;;;;;;;;;;;23.60;31.09;96186.56;5008461;28;1210;-72
2023/01/25 07:55:29;;;;;;;;;;;;;;;23.62;31.05;96184.50;4972154;28;1242;-71
2023/01/25 07:57:54;;;;;;;;;;;;;;;23.62;31.04;96189.84;4972263;28;981;-71
2023/01/25 08:00:20;;;;;;;;;;;;;;;23.63;30.91;96196.06;4976954;28;869;-72
2023/01/25 08:02:48;;;;;;;;;;;;;;;23.63;31.05;96188.84;4976764;28;822;-72
2023/01/25 08:05:14;;;;;;;;;;;;;;;23.61;30.94;96182.84;5008317;28;1199;-72
2023/01/25 08:07:39;;;;;;;;;;;;;;;23.63;31.22;96179.97;4967152;28;1895;-72
2023/01/25 08:10:05;;;;;;;;;;;;;;;23.63;31.20;96183.50;4977045;28;825;-73
2023/01/25 08:12:33;;;;;;;;;;;;;;;23.64;31.25;96184.31;4976647;28;873;-72
2023/01/25 08:14:58;;;;;;;;;;;;;;;23.63;30.99;96174.63;4976577;28;833;-72
2023/01/25 08:17:23;;;;;;;;;;;;;;;23.62;31.38;96173.78;4975355;28;1176;-73
2023/01/25 08:19:49;;;;;;;;;;;;;;;23.64;30.94;96179.78;4966938;28;1230;-72
2023/01/25 08:22:14;;;;;;;;;;;;;;;23.65;31.17;96177.91;4976610;28;881;-72
2023/01/25 08:24:39;;;;;;;;;;;;;;;23.63;31.19;96180.81;4976560;28;801;-72
2023/01/25 08:27:05;;;;;;;;;;;;;;;23.65;31.08;96180.59;4976416;28;1894;-72
2023/01/25 08:29:30;;;;;;;;;;;;;;;23.65;30.98;96180.59;4971826;28;1144;-72
2023/01/25 08:31:55;;;;;;;;;;;;;;;23.66;31.08;96166.19;5002952;28;1347;-72
2023/01/25 08:34:21;;;;;;;;;;;;;;;23.66;30.92;96177.72;5007835;28;1394;-72
2023/01/25 08:36:46;;;;;;;;;;;;;;;23.66;31.23;96174.22;4976412;28;785;-72
2023/01/25 08:39:12;;;;;;;;;;;;;;;23.66;31.06;96174.22;4976289;28;833;-72
2023/01/25 08:41:37;;;;;;;;;;;;;;;23.66;31.04;96171.56;4966912;28;1080;-72
2023/01/25 08:44:03;;;;;;;;;;;;;;;23.66;31.21;96168.88;4976106;28;802;-72
2023/01/25 08:46:30;;;;;;;;;;;;;;;23.66;31.13;96161.66;4975993;28;1969;-72
2023/01/25 08:48:56;;;;;;;;;;;;;;;23.67;31.01;96165.97;4974725;28;1684;-72
2023/01/25 08:51:22;;;;;;;;;;;;;;;23.66;31.07;96158.16;4974660;28;1388;-72
2023/01/25 08:53:47;;;;;;;;;;;;;;;23.67;31.05;96165.16;4997703;28;1540;-72
2023/01/25 08:56:13;;;;;;;;;;;;;;;23.68;31.18;96169.47;4975979;28;860;-72
2023/01/25 08:58:39;;;;;;;;;;;;;;;23.68;31.01;96166.81;4974699;28;1302;-72
2023/01/25 09:01:06;;;;;;;;;;;;;;;23.67;31.29;96165.16;4975876;28;869;-73
2023/01/25 09:03:39;;;;;;;;;;;;;;;23.68;30.99;96169.47;4971255;28;1063;-72
2023/01/25 09:06:04;;;;;;;;;;;;;;;23.67;31.10;96162.47;4971095;28;1959;-74
2023/01/25 09:08:30;;;;;;;;;;;;;;;23.68;31.15;96164.97;4973878;28;1239;-71
2023/01/25 09:10:59;;;;;;;;;;;;;;;23.70;31.00;96167.44;4975989;28;809;-72
2023/01/25 09:13:25;;;;;;;;;;;;;;;23.69;31.05;96157.75;4975632;28;818;-73
2023/01/25 09:15:50;;;;;;;;;;;;;;;23.69;31.26;96157.75;4966210;28;1057;-70
2023/01/25 09:18:15;;;;;;;;;;;;;;;23.68;31.08;96145.38;4975615;28;940;-72
2023/01/25 09:20:40;;;;;;;;;;;;;;;23.69;30.96;96141.69;4975828;28;801;-72
2023/01/25 09:23:06;;;;;;;;;;;;;;;23.68;31.23;96150.72;4974272;28;1355;-72
2023/01/25 09:25:31;;;;;;;;;;;;;;;23.69;31.01;96152.41;4975461;28;1906;-72
2023/01/25 09:27:56;;;;;;;;;;;;;;;23.70;31.04;96148.69;4966057;28;1061;-72
2023/01/25 09:30:22;;;;;;;;;;;;;;;23.70;31.18;96146.84;4975763;28;1441;-71
2023/01/25 09:32:48;;;;;;;;;;;;;;;23.70;31.21;96135.28;5007109;28;1251;-71
2023/01/25 09:35:13;;;;;;;;;;;;;;;23.69;31.19;96137.16;4973961;28;1313;-72
2023/01/25 09:37:39;;;;;;;;;;;;;;;23.69;31.02;96126.44;4970751;28;953;-71
2023/01/25 09:40:06;;;;;;;;;;;;;;;23.71;31.24;96123.59;4970151;28;1119;-73
2023/01/25 09:43:09;;;;;;;;;;;;;;;23.71;31.01;96124.41;4975085;28;959;-73
2023/01/25 09:45:35;;;;;;;;;;;;;;;23.70;31.15;96111.19;4992318;28;1971;-72
2023/01/25 09:48:12;;;;;;;;;;;;;;;23.70;31.12;96111.19;4992472;28;892;-72
2023/01/25 09:50:56;;;;;;;;;;;;;;;23.71;31.08;96120.91;4973250;28;1135;-72
2023/01/25 09:53:23;;;;;;;;;;;;;;;23.69;31.18;96101.50;4974912;28;995;-72
2023/01/25 09:55:52;;;;;;;;;;;;;;;23.68;31.12;96102.50;4974923;28;834;-72
2023/01/25 09:58:20;;;;;;;;;;;;;;;23.69;31.34;96102.31;4974836;28;888;-72
2023/01/25 10:00:47;;;;;;;;;;;;;;;23.66;31.05;96086.63;4999111;28;1373;-71
2023/01/25 10:03:18;;;;;;;;;;;;;;;23.70;31.19;96084.38;4973648;28;1076;-72
2023/01/25 10:05:44;;;;;;;;;;;;;;;23.69;31.27;96085.41;4974701;28;1972;-72
2023/01/25 10:08:28;;;;;;;;;;;;;;;23.70;31.18;96079.88;4974720;28;770;-73
2023/01/25 10:11:01;;;;;;;;;;;;;;;23.69;31.21;96080.88;5006004;28;1314;-73
2023/01/25 10:13:30;;;;;;;;;;;;;;;23.69;31.00;96070.16;4996505;28;1310;-73
2023/01/25 10:15:59;;;;;;;;;;;;;;;23.70;31.22;96065.63;5005868;28;1243;-73
2023/01/25 10:18:24;;;;;;;;;;;;;;;23.71;31.10;96064.66;4974633;28;793;-73
2023/01/25 10:20:57;;;;;;;;;;;;;;;23.71;31.14;96054.75;5005227;28;1476;-73
2023/01/25 10:23:22;;;;;;;;;;;;;;;23.71;31.33;96051.25;4968076;28;1375;-71
2023/01/25 10:26:03;;;;;;;;;;;;;;;23.71;31.17;96048.56;5001316;28;1902;-72
2023/01/25 10:28:31;;;;;;;;;;;;;;;23.71;31.24;96059.28;5005970;28;1369;-73
2023/01/25 10:30:59;;;;;;;;;;;;;;;23.71;31.15;96048.56;4974091;28;1435;-72
2023/01/25 10:33:26;;;;;;;;;;;;;;;23.71;31.12;96052.09;4974314;28;963;-72
2023/01/25 10:35:54;;;;;;;;;;;;;;;23.71;30.98;96048.56;4996719;28;1334;-72
2023/01/25 10:38:22;;;;;;;;;;;;;;;23.70;31.12;96044.19;4974200;28;818;-72
2023/01/25 10:40:52;;;;;;;;;;;;;;;23.71;31.06;96037.88;4974166;28;861;-72
2023/01/25 10:43:18;;;;;;;;;;;;;;;23.71;31.02;96038.69;4974589;28;801;-72
2023/01/25 10:45:44;;;;;;;;;;;;;;;23.71;31.16;96029.81;4968113;28;1910;-72
2023/01/25 10:48:12;;;;;;;;;;;;;;;23.70;31.04;96025.44;5000737;28;1396;-72
2023/01/25 10:50:40;;;;;;;;;;;;;;;23.70;31.02;96028.97;4974194;28;936;-72
2023/01/25 10:53:19;;;;;;;;;;;;;;;23.72;31.00;96026.09;4973975;28;919;-72
2023/01/25 10:56:15;;;;;;;;;;;;;;;23.72;30.88;96012.72;4989053;28;1516;-72
2023/01/25 10:58:43;;;;;;;;;;;;;;;23.71;31.02;96008.38;4964363;28;1349;-72
2023/01/25 11:01:24;;;;;;;;;;;;;;;23.71;31.21;96005.72;4972835;28;1232;-72
2023/01/25 11:03:49;;;;;;;;;;;;;;;23.72;31.21;96002.00;4973023;28;1453;-72
2023/01/25 11:06:27;;;;;;;;;;;;;;;23.72;31.15;96002.81;4973850;28;1960;-72
2023/01/25 11:08:52;;;;;;;;;;;;;;;23.71;31.20;96001.19;4967752;28;1161;-71
2023/01/25 11:11:49;;;;;;;;;;;;;;;23.72;30.99;95997.47;5002054;28;1394;-73
2023/01/25 11:14:16;;;;;;;;;;;;;;;23.71;31.22;95995.81;4973274;28;1277;-73
2023/01/25 11:16:44;;;;;;;;;;;;;;;23.71;31.13;95995.00;4974590;28;809;-73
2023/01/25 11:19:26;;;;;;;;;;;;;;;23.71;31.16;95995.00;5006013;28;1186;-72
2023/01/25 11:21:52;;;;;;;;;;;;;;;23.71;31.12;95992.31;4979213;28;1684;-72
2023/01/25 11:24:18;;;;;;;;;;;;;;;23.71;31.13;95990.44;4973942;28;905;-72
2023/01/25 11:26:44;;;;;;;;;;;;;;;23.71;31.09;95979.75;4973775;28;1965;-73
2023/01/25 11:29:13;;;;;;;;;;;;;;;23.71;31.17;95979.75;4974129;28;864;-72
2023/01/25 11:31:44;;;;;;;;;;;;;;;23.71;31.17;95979.75;4967147;28;1191;-73
2023/01/25 11:34:11;;;;;;;;;;;;;;;23.72;31.11;95978.69;4977089;28;1065;-73
2023/01/25 11:36:36;;;;;;;;;;;;;;;23.71;30.98;95974.38;4977234;28;869;-72
2023/01/25 11:39:11;;;;;;;;;;;;;;;23.72;31.18;95972.53;4977139;28;893;-71
2023/01/25 11:41:40;;;;;;;;;;;;;;;23.72;31.16;95967.16;4977188;28;793;-72
2023/01/25 11:44:25;;;;;;;;;;;;;;;23.73;30.94;95963.44;4998697;28;1391;-72
2023/01/25 11:47:12;;;;;;;;;;;;;;;23.71;30.97;95955.63;4977097;28;1914;-71
2023/01/25 11:49:46;;;;;;;;;;;;;;;23.71;30.97;95946.78;4977295;28;848;-72
2023/01/25 11:52:23;;;;;;;;;;;;;;;23.71;31.20;95944.09;4977125;28;809;-72
2023/01/25 11:55:07;;;;;;;;;;;;;;;23.72;31.04;95943.06;4967804;28;1307;-72
2023/01/25 11:57:45;;;;;;;;;;;;;;;23.69;31.21;95936.22;5008458;28;1097;-72
2023/01/25 12:00:26;;;;;;;;;;;;;;;23.70;31.09;95937.03;5008328;28;1204;-73
2023/01/25 12:02:54;;;;;;;;;;;;;;;23.69;30.99;95930.03;5008553;28;1838;-73
2023/01/25 12:05:32;;;;;;;;;;;;;;;23.71;31.00;95938.72;5003700;28;1290;-72
2023/01/25 12:08:16;;;;;;;;;;;;;;;23.71;31.09;95928.00;4972184;28;1065;-73
2023/01/25 12:10:50;;;;;;;;;;;;;;;23.71;31.07;95933.38;4977243;28;875;-73
2023/01/25 12:13:30;;;;;;;;;;;;;;;23.71;31.11;95922.66;4991903;28;1097;-72
2023/01/25 12:16:14;;;;;;;;;;;;;;;23.71;31.06;95922.66;4977139;28;797;-73
2023/01/25 12:18:57;;;;;;;;;;;;;;;23.71;30.99;95919.97;4967402;28;1176;-73
2023/01/25 12:21:33;;;;;;;;;;;;;;;23.71;31.14;95923.47;4976838;28;897;-73
2023/01/25 12:24:07;;;;;;;;;;;;;;;23.70;30.94;95918.28;4975483;28;1211;-73
2023/01/25 12:26:38;;;;;;;;;;;;;;;23.71;30.99;95918.13;4976775;28;1899;-73
2023/01/25 12:29:04;;;;;;;;;;;;;;;23.72;31.16;95918.94;4967532;28;1028;-73
2023/01/25 12:31:40;;;;;;;;;;;;;;;23.71;30.93;95909.25;4976438;28;1214;-72
2023/01/25 12:34:28;;;;;;;;;;;;;;;23.71;31.01;95906.59;4976756;28;821;-73
2023/01/25 12:36:56;;;;;;;;;;;;;;;23.70;31.16;95903.06;4991230;28;1250;-73
2023/01/25 12:39:23;;;;;;;;;;;;;;;23.70;30.99;95908.41;4971997;28;975;-71
2023/01/25 12:41:53;;;;;;;;;;;;;;;23.72;30.92;95908.22;4971375;28;1176;-73
2023/01/25 12:44:26;;;;;;;;;;;;;;;23.72;31.13;95905.53;4975588;28;845;-73
2023/01/25 12:46:55;;;;;;;;;;;;;;;23.70;31.10;95896.84;4976214;28;1957;-73
2023/01/25 12:49:28;;;;;;;;;;;;;;;23.69;31.00;95896.03;5007675;28;1371;-73
2023/01/25 12:51:55;;;;;;;;;;;;;;;23.71;31.10;95887.81;4965513;28;1700;-73
2023/01/25 12:54:27;;;;;;;;;;;;;;;23.71;30.92;95895.88;4976104;28;947;-73
2023/01/25 12:56:57;;;;;;;;;;;;;;;23.70;31.27;95897.69;4976202;28;785;-73
2023/01/25 12:59:29;;;;;;;;;;;;;;;23.71;31.12;95895.88;4976152;28;845;-73
2023/01/25 13:01:58;;;;;;;;;;;;;;;23.71;31.13;95890.50;4972200;28;937;-72